CSW86 HECA-CYCA
Flight info
| Callsign | CSW86 |
|---|---|
| Flight time | N/A |
| Altitude | 35000 |
| Route | CVO L617 MENKU L617 NABSI M872 METRU KOR IVMEP TRO ARKIL MALOT NATB ALLRY N362A MIILS N649A KODIK |
| Aircraft | B747/J-ICAO/L |
Departure
| Time | 2026-04-27 11:41 |
|---|---|
| Airport | Cairo International Airport (HECA) |
Arrival
| Time | N/A |
|---|---|
| Airport | Cartwright Airport (CYCA) |
| Time | Latitude | Longitude | Altitude | Speed | Heading |
|---|---|---|---|---|---|
| 2026-04-27 10:38 | 30.11401 | 31.40045 | 381 ft | 0 kts | 280° |
| 2026-04-27 11:27 | 30.11398 | 31.40061 | 381 ft | 3 kts | 305° |
| 2026-04-27 11:28 | 30.11384 | 31.40077 | 381 ft | 3 kts | 341° |
| 2026-04-27 11:28 | 30.11365 | 31.40081 | 381 ft | 3 kts | 12° |
| 2026-04-27 11:28 | 30.11346 | 31.40074 | 381 ft | 3 kts | 44° |
| 2026-04-27 11:28 | 30.11334 | 31.40056 | 381 ft | 3 kts | 75° |
| 2026-04-27 11:29 | 30.11334 | 31.40055 | 381 ft | 0 kts | 75° |
| 2026-04-27 11:34 | 30.11335 | 31.40061 | 381 ft | 2 kts | 75° |
| 2026-04-27 11:34 | 30.11341 | 31.40096 | 383 ft | 5 kts | 85° |
| 2026-04-27 11:34 | 30.11342 | 31.40145 | 381 ft | 8 kts | 97° |
| 2026-04-27 11:34 | 30.11317 | 31.40236 | 381 ft | 17 kts | 108° |
| 2026-04-27 11:35 | 30.11261 | 31.40385 | 381 ft | 22 kts | 131° |
| 2026-04-27 11:35 | 30.11134 | 31.40520 | 381 ft | 23 kts | 140° |
| 2026-04-27 11:35 | 30.11034 | 31.40654 | 381 ft | 19 kts | 102° |
| 2026-04-27 11:35 | 30.11076 | 31.40773 | 381 ft | 13 kts | 67° |
| 2026-04-27 11:36 | 30.11086 | 31.40866 | 381 ft | 14 kts | 80° |
| 2026-04-27 11:36 | 30.11145 | 31.40987 | 381 ft | 21 kts | 51° |
| 2026-04-27 11:36 | 30.11256 | 31.41137 | 381 ft | 28 kts | 49° |
| 2026-04-27 11:36 | 30.11396 | 31.41325 | 381 ft | 34 kts | 49° |
| 2026-04-27 11:37 | 30.11565 | 31.41550 | 381 ft | 40 kts | 50° |
| 2026-04-27 11:37 | 30.11753 | 31.41815 | 381 ft | 45 kts | 50° |
| 2026-04-27 11:37 | 30.11969 | 31.42097 | 381 ft | 50 kts | 48° |
| 2026-04-27 11:37 | 30.12196 | 31.42398 | 381 ft | 47 kts | 50° |
| 2026-04-27 11:38 | 30.12417 | 31.42691 | 381 ft | 46 kts | 51° |
| 2026-04-27 11:38 | 30.12455 | 31.42785 | 381 ft | 0 kts | 79° |
| 2026-04-27 11:38 | 30.12455 | 31.42787 | 381 ft | 1 kts | 79° |
| 2026-04-27 11:39 | 30.12455 | 31.42842 | 381 ft | 8 kts | 99° |
| 2026-04-27 11:39 | 30.12444 | 31.42871 | 381 ft | 5 kts | 129° |
| 2026-04-27 11:39 | 30.12360 | 31.42912 | 381 ft | 21 kts | 175° |
| 2026-04-27 11:39 | 30.12235 | 31.42842 | 381 ft | 0 kts | 229° |
| 2026-04-27 11:40 | 30.12234 | 31.42841 | 381 ft | 3 kts | 230° |
| 2026-04-27 11:40 | 30.12043 | 31.42587 | 381 ft | 80 kts | 229° |
| 2026-04-27 11:40 | 30.11511 | 31.41883 | 381 ft | 151 kts | 229° |
| 2026-04-27 11:40 | 30.10671 | 31.40781 | 417 ft | 207 kts | 226° |
| 2026-04-27 11:41 | 30.09637 | 31.39599 | 880 ft | 212 kts | 230° |
| 2026-04-27 11:41 | 30.08811 | 31.38244 | 1546 ft | 202 kts | 252° |
| 2026-04-27 11:41 | 30.08686 | 31.36629 | 1856 ft | 212 kts | 288° |
| 2026-04-27 11:41 | 30.09449 | 31.35196 | 2525 ft | 203 kts | 313° |
| 2026-04-27 11:42 | 30.10587 | 31.34287 | 3218 ft | 208 kts | 342° |
| 2026-04-27 11:42 | 30.12052 | 31.33912 | 3536 ft | 231 kts | 341° |
| 2026-04-27 11:42 | 30.13680 | 31.33285 | 3538 ft | 258 kts | 332° |
| 2026-04-27 11:42 | 30.15274 | 31.32295 | 3532 ft | 260 kts | 322° |
| 2026-04-27 11:43 | 30.16678 | 31.30961 | 3527 ft | 261 kts | 313° |
| 2026-04-27 11:43 | 30.17957 | 31.29464 | 3516 ft | 262 kts | 312° |
| 2026-04-27 11:43 | 30.19260 | 31.27999 | 3508 ft | 260 kts | 314° |
| 2026-04-27 11:43 | 30.20612 | 31.26570 | 3476 ft | 261 kts | 315° |
| 2026-04-27 11:44 | 30.21942 | 31.25162 | 3612 ft | 261 kts | 315° |
| 2026-04-27 11:44 | 30.23262 | 31.23738 | 3863 ft | 261 kts | 314° |
| 2026-04-27 11:44 | 30.24615 | 31.22272 | 4146 ft | 278 kts | 315° |
| 2026-04-27 11:44 | 30.26038 | 31.20734 | 4407 ft | 282 kts | 315° |
| 2026-04-27 11:45 | 30.27475 | 31.19189 | 4674 ft | 283 kts | 314° |
| 2026-04-27 11:45 | 30.28449 | 31.18143 | 4914 ft | 282 kts | 315° |
| 2026-04-27 11:45 | 30.30378 | 31.16062 | 5425 ft | 287 kts | 314° |
| 2026-04-27 11:45 | 30.31849 | 31.14473 | 5803 ft | 291 kts | 314° |
| 2026-04-27 11:46 | 30.33333 | 31.12874 | 6181 ft | 291 kts | 314° |
| 2026-04-27 11:46 | 30.34827 | 31.11264 | 6548 ft | 293 kts | 314° |
| 2026-04-27 11:46 | 30.36323 | 31.09648 | 6909 ft | 295 kts | 314° |
| 2026-04-27 11:46 | 30.37809 | 31.08042 | 7257 ft | 296 kts | 315° |
| 2026-04-27 11:47 | 30.39317 | 31.06413 | 7615 ft | 297 kts | 315° |
| 2026-04-27 11:47 | 30.40829 | 31.04777 | 7972 ft | 296 kts | 315° |
| 2026-04-27 11:47 | 30.42350 | 31.03135 | 8352 ft | 300 kts | 315° |
| 2026-04-27 11:47 | 30.43873 | 31.01487 | 8719 ft | 301 kts | 315° |
| 2026-04-27 11:48 | 30.45408 | 30.99826 | 9091 ft | 302 kts | 316° |
| 2026-04-27 11:48 | 30.46946 | 30.98159 | 9470 ft | 303 kts | 316° |
| 2026-04-27 11:48 | 30.48496 | 30.96481 | 9847 ft | 305 kts | 316° |
| 2026-04-27 11:48 | 30.50051 | 30.94796 | 10206 ft | 307 kts | 316° |
| 2026-04-27 11:49 | 30.51616 | 30.93098 | 10548 ft | 308 kts | 316° |
| 2026-04-27 11:49 | 30.53186 | 30.91395 | 10899 ft | 310 kts | 316° |
| 2026-04-27 11:49 | 30.54769 | 30.89677 | 11251 ft | 312 kts | 316° |
| 2026-04-27 11:49 | 30.56342 | 30.87969 | 11599 ft | 314 kts | 316° |
| 2026-04-27 11:50 | 30.57942 | 30.86231 | 11976 ft | 315 kts | 316° |
| 2026-04-27 11:50 | 30.59545 | 30.84489 | 12343 ft | 317 kts | 316° |
| 2026-04-27 11:50 | 30.61165 | 30.82728 | 12717 ft | 319 kts | 316° |
| 2026-04-27 11:50 | 30.62795 | 30.80953 | 13093 ft | 321 kts | 316° |
| 2026-04-27 11:51 | 30.64418 | 30.79187 | 13471 ft | 324 kts | 316° |
| 2026-04-27 11:51 | 30.66065 | 30.77393 | 13850 ft | 326 kts | 316° |
| 2026-04-27 11:51 | 30.69388 | 30.73773 | 14537 ft | 329 kts | 315° |
| 2026-04-27 11:52 | 30.71057 | 30.71952 | 14883 ft | 330 kts | 316° |
| 2026-04-27 11:52 | 30.72734 | 30.70123 | 15233 ft | 331 kts | 316° |
| 2026-04-27 11:52 | 30.74422 | 30.68280 | 15589 ft | 333 kts | 315° |
| 2026-04-27 11:52 | 30.76115 | 30.66431 | 15961 ft | 335 kts | 315° |
| 2026-04-27 11:53 | 30.77820 | 30.64567 | 16319 ft | 336 kts | 315° |
| 2026-04-27 11:53 | 30.79532 | 30.62695 | 16686 ft | 338 kts | 315° |
| 2026-04-27 11:53 | 30.81252 | 30.60814 | 17056 ft | 340 kts | 315° |
| 2026-04-27 11:53 | 30.82980 | 30.58923 | 17440 ft | 342 kts | 315° |
| 2026-04-27 11:54 | 30.84717 | 30.57021 | 17824 ft | 343 kts | 315° |
| 2026-04-27 11:54 | 30.86462 | 30.55109 | 18207 ft | 346 kts | 315° |
| 2026-04-27 11:54 | 30.88217 | 30.53185 | 18555 ft | 347 kts | 315° |
| 2026-04-27 11:54 | 30.89980 | 30.51251 | 18882 ft | 349 kts | 315° |
| 2026-04-27 11:55 | 30.91751 | 30.49308 | 19228 ft | 349 kts | 315° |
| 2026-04-27 11:55 | 30.93520 | 30.47366 | 19567 ft | 351 kts | 315° |
| 2026-04-27 11:55 | 30.95305 | 30.45405 | 19919 ft | 352 kts | 315° |
| 2026-04-27 11:55 | 30.97090 | 30.43443 | 20287 ft | 354 kts | 315° |
| 2026-04-27 11:56 | 30.98885 | 30.41469 | 20641 ft | 355 kts | 315° |
| 2026-04-27 11:56 | 31.00685 | 30.39488 | 21011 ft | 357 kts | 315° |
| 2026-04-27 11:56 | 31.02473 | 30.37521 | 21370 ft | 358 kts | 315° |
| 2026-04-27 11:56 | 31.04286 | 30.35524 | 21742 ft | 360 kts | 314° |
| 2026-04-27 11:57 | 31.06111 | 30.33512 | 22125 ft | 361 kts | 314° |
| 2026-04-27 11:57 | 31.07906 | 30.31452 | 22539 ft | 362 kts | 307° |
| 2026-04-27 11:57 | 31.09312 | 30.29026 | 23013 ft | 363 kts | 295° |
| 2026-04-27 11:57 | 31.10240 | 30.26246 | 23036 ft | 372 kts | 288° |
| 2026-04-27 11:58 | 31.10765 | 30.24347 | 23027 ft | 368 kts | 288° |
| 2026-04-27 11:58 | 31.11536 | 30.21494 | 23026 ft | 368 kts | 288° |
| 2026-04-27 11:58 | 31.12309 | 30.18639 | 23035 ft | 369 kts | 288° |
| 2026-04-27 11:58 | 31.13091 | 30.15783 | 23038 ft | 369 kts | 288° |
| 2026-04-27 11:59 | 31.13874 | 30.12928 | 23042 ft | 369 kts | 288° |
| 2026-04-27 11:59 | 31.14643 | 30.10104 | 23046 ft | 369 kts | 288° |
| 2026-04-27 12:00 | 31.15118 | 30.08353 | 23044 ft | 369 kts | 288° |
| 2026-04-27 12:00 | 31.15896 | 30.05489 | 23048 ft | 370 kts | 288° |
| 2026-04-27 12:01 | 31.16676 | 30.02628 | 23044 ft | 370 kts | 288° |
| 2026-04-27 12:01 | 31.17456 | 29.99757 | 23047 ft | 370 kts | 288° |
| 2026-04-27 12:01 | 31.18236 | 29.96892 | 23048 ft | 370 kts | 289° |
| 2026-04-27 12:01 | 31.19304 | 29.94215 | 23043 ft | 368 kts | 302° |
| 2026-04-27 12:02 | 31.20777 | 29.91774 | 23068 ft | 367 kts | 305° |
| 2026-04-27 12:02 | 31.22288 | 29.89374 | 23248 ft | 365 kts | 305° |
| 2026-04-27 12:02 | 31.23794 | 29.86966 | 23517 ft | 369 kts | 305° |
| 2026-04-27 12:02 | 31.25304 | 29.84538 | 23756 ft | 370 kts | 305° |
| 2026-04-27 12:03 | 31.26825 | 29.82098 | 23990 ft | 372 kts | 304° |
| 2026-04-27 12:03 | 31.28355 | 29.79649 | 24205 ft | 373 kts | 304° |
| 2026-04-27 12:03 | 31.29886 | 29.77194 | 24412 ft | 374 kts | 304° |
| 2026-04-27 12:03 | 31.31423 | 29.74725 | 24648 ft | 375 kts | 304° |
| 2026-04-27 12:04 | 31.32961 | 29.72253 | 24873 ft | 377 kts | 304° |
| 2026-04-27 12:04 | 31.34506 | 29.69770 | 25095 ft | 377 kts | 304° |
| 2026-04-27 12:04 | 31.36057 | 29.67277 | 25332 ft | 379 kts | 304° |
| 2026-04-27 12:04 | 31.37594 | 29.64802 | 25546 ft | 380 kts | 304° |
| 2026-04-27 12:05 | 31.39155 | 29.62287 | 25777 ft | 382 kts | 304° |
| 2026-04-27 12:05 | 31.40718 | 29.59768 | 26013 ft | 383 kts | 304° |
| 2026-04-27 12:05 | 31.42288 | 29.57237 | 26244 ft | 384 kts | 304° |
| 2026-04-27 12:05 | 31.43860 | 29.54700 | 26476 ft | 386 kts | 304° |
| 2026-04-27 12:06 | 31.45439 | 29.52150 | 26716 ft | 387 kts | 304° |
| 2026-04-27 12:06 | 31.47000 | 29.49627 | 26968 ft | 388 kts | 303° |
| 2026-04-27 12:06 | 31.48587 | 29.47062 | 27189 ft | 390 kts | 303° |
| 2026-04-27 12:06 | 31.50178 | 29.44487 | 27448 ft | 391 kts | 303° |
| 2026-04-27 12:07 | 31.51779 | 29.41896 | 27698 ft | 392 kts | 303° |
| 2026-04-27 12:07 | 31.53381 | 29.39301 | 27943 ft | 394 kts | 303° |
| 2026-04-27 12:07 | 31.54987 | 29.36697 | 28190 ft | 395 kts | 303° |
| 2026-04-27 12:07 | 31.56599 | 29.34082 | 28452 ft | 396 kts | 303° |
| 2026-04-27 12:08 | 31.58218 | 29.31454 | 28704 ft | 398 kts | 303° |
| 2026-04-27 12:08 | 31.59825 | 29.28842 | 28960 ft | 399 kts | 303° |
| 2026-04-27 12:08 | 31.61448 | 29.26194 | 29222 ft | 401 kts | 303° |
| 2026-04-27 12:08 | 31.63077 | 29.23533 | 29485 ft | 402 kts | 303° |
| 2026-04-27 12:09 | 31.64715 | 29.20860 | 29752 ft | 404 kts | 303° |
| 2026-04-27 12:09 | 31.66358 | 29.18178 | 30014 ft | 405 kts | 303° |
| 2026-04-27 12:09 | 31.68008 | 29.15481 | 30256 ft | 406 kts | 303° |
| 2026-04-27 12:09 | 31.69657 | 29.12785 | 30482 ft | 407 kts | 303° |
| 2026-04-27 12:10 | 31.71311 | 29.10077 | 30723 ft | 408 kts | 303° |
| 2026-04-27 12:10 | 31.72966 | 29.07367 | 30945 ft | 409 kts | 303° |
| 2026-04-27 12:10 | 31.74625 | 29.04648 | 31173 ft | 409 kts | 303° |
| 2026-04-27 12:10 | 31.76286 | 29.01925 | 31408 ft | 410 kts | 303° |
| 2026-04-27 12:11 | 31.77945 | 28.99202 | 31642 ft | 410 kts | 303° |
| 2026-04-27 12:11 | 31.79605 | 28.96475 | 31878 ft | 410 kts | 303° |
| 2026-04-27 12:11 | 31.81263 | 28.93751 | 32113 ft | 410 kts | 303° |
| 2026-04-27 12:11 | 31.82900 | 28.91058 | 32351 ft | 410 kts | 303° |
| 2026-04-27 12:12 | 31.84559 | 28.88328 | 32589 ft | 409 kts | 303° |
| 2026-04-27 12:12 | 31.86212 | 28.85605 | 32843 ft | 409 kts | 303° |
| 2026-04-27 12:12 | 31.87864 | 28.82885 | 33072 ft | 408 kts | 302° |
| 2026-04-27 12:12 | 31.89511 | 28.80169 | 33318 ft | 407 kts | 302° |
| 2026-04-27 12:13 | 31.91153 | 28.77459 | 33556 ft | 405 kts | 302° |
| 2026-04-27 12:13 | 31.92788 | 28.74759 | 33804 ft | 404 kts | 302° |
| 2026-04-27 12:13 | 31.94417 | 28.72067 | 34033 ft | 402 kts | 302° |
| 2026-04-27 12:13 | 31.96038 | 28.69387 | 34251 ft | 400 kts | 302° |
| 2026-04-27 12:14 | 31.97652 | 28.66715 | 34456 ft | 398 kts | 302° |
| 2026-04-27 12:14 | 31.99237 | 28.64092 | 34660 ft | 396 kts | 302° |
| 2026-04-27 12:14 | 32.00833 | 28.61448 | 34868 ft | 394 kts | 302° |
| 2026-04-27 12:14 | 32.02414 | 28.58824 | 35018 ft | 393 kts | 302° |
| 2026-04-27 12:15 | 32.04006 | 28.56178 | 35022 ft | 397 kts | 302° |
| 2026-04-27 12:15 | 32.07232 | 28.50817 | 35024 ft | 404 kts | 302° |
| 2026-04-27 12:16 | 32.10497 | 28.45381 | 35046 ft | 411 kts | 302° |
| 2026-04-27 12:16 | 32.13835 | 28.39815 | 35044 ft | 419 kts | 302° |
| 2026-04-27 12:17 | 32.17237 | 28.34134 | 35039 ft | 428 kts | 302° |
| 2026-04-27 12:17 | 32.20701 | 28.28342 | 35034 ft | 434 kts | 302° |
| 2026-04-27 12:18 | 32.24187 | 28.22507 | 35048 ft | 434 kts | 302° |
| 2026-04-27 12:18 | 32.27649 | 28.16702 | 35040 ft | 434 kts | 302° |
| 2026-04-27 12:19 | 32.31129 | 28.10859 | 35029 ft | 434 kts | 302° |
| 2026-04-27 12:19 | 32.34591 | 28.05041 | 35274 ft | 431 kts | 302° |
| 2026-04-27 12:19 | 32.36320 | 28.02128 | 35446 ft | 431 kts | 302° |
| 2026-04-27 12:20 | 32.38044 | 27.99223 | 35631 ft | 431 kts | 302° |
| 2026-04-27 12:20 | 32.39767 | 27.96318 | 35799 ft | 430 kts | 302° |
| 2026-04-27 12:20 | 32.41487 | 27.93418 | 35985 ft | 429 kts | 302° |
| 2026-04-27 12:20 | 32.43199 | 27.90527 | 36166 ft | 429 kts | 302° |
| 2026-04-27 12:21 | 32.44909 | 27.87637 | 36345 ft | 428 kts | 302° |
| 2026-04-27 12:21 | 32.46592 | 27.84792 | 36513 ft | 426 kts | 302° |
| 2026-04-27 12:21 | 32.48289 | 27.81919 | 36700 ft | 425 kts | 302° |
| 2026-04-27 12:21 | 32.49982 | 27.79052 | 36869 ft | 423 kts | 301° |
| 2026-04-27 12:22 | 32.51668 | 27.76195 | 37061 ft | 422 kts | 301° |
| 2026-04-27 12:22 | 32.53346 | 27.73350 | 37245 ft | 420 kts | 301° |
| 2026-04-27 12:22 | 32.55017 | 27.70513 | 37423 ft | 418 kts | 301° |
| 2026-04-27 12:22 | 32.56682 | 27.67686 | 37601 ft | 416 kts | 301° |
| 2026-04-27 12:23 | 32.58336 | 27.64875 | 37794 ft | 414 kts | 301° |
| 2026-04-27 12:23 | 32.59976 | 27.62085 | 37965 ft | 411 kts | 301° |
| 2026-04-27 12:23 | 32.61584 | 27.59348 | 38157 ft | 408 kts | 301° |
| 2026-04-27 12:23 | 32.63201 | 27.56594 | 38329 ft | 405 kts | 301° |
| 2026-04-27 12:24 | 32.64805 | 27.53861 | 38514 ft | 401 kts | 301° |
| 2026-04-27 12:24 | 32.66393 | 27.51152 | 38678 ft | 398 kts | 301° |
| 2026-04-27 12:24 | 32.67966 | 27.48468 | 38823 ft | 393 kts | 301° |
| 2026-04-27 12:24 | 32.69519 | 27.45815 | 38958 ft | 389 kts | 301° |
| 2026-04-27 12:25 | 32.71056 | 27.43188 | 39075 ft | 384 kts | 301° |
| 2026-04-27 12:25 | 32.72574 | 27.40591 | 39218 ft | 379 kts | 301° |
| 2026-04-27 12:25 | 32.74068 | 27.38033 | 39344 ft | 374 kts | 301° |
| 2026-04-27 12:25 | 32.75517 | 27.35552 | 39456 ft | 368 kts | 301° |
| 2026-04-27 12:26 | 32.76965 | 27.33071 | 39560 ft | 361 kts | 301° |
| 2026-04-27 12:26 | 32.78385 | 27.30636 | 39669 ft | 354 kts | 301° |
| 2026-04-27 12:26 | 32.79774 | 27.28253 | 39770 ft | 346 kts | 300° |
| 2026-04-27 12:27 | 32.82459 | 27.23641 | 39695 ft | 336 kts | 300° |
| 2026-04-27 12:27 | 32.83792 | 27.21341 | 39395 ft | 339 kts | 300° |
| 2026-04-27 12:27 | 32.85144 | 27.19010 | 39058 ft | 344 kts | 300° |
| 2026-04-27 12:27 | 32.86497 | 27.16680 | 38786 ft | 349 kts | 301° |
| 2026-04-27 12:28 | 32.87884 | 27.14291 | 38433 ft | 350 kts | 301° |
| 2026-04-27 12:28 | 32.89274 | 27.11890 | 38076 ft | 355 kts | 301° |
| 2026-04-27 12:28 | 32.90682 | 27.09457 | 37723 ft | 359 kts | 301° |
| 2026-04-27 12:28 | 32.92112 | 27.06986 | 37435 ft | 365 kts | 301° |
| 2026-04-27 12:29 | 32.93561 | 27.04481 | 37237 ft | 370 kts | 301° |
| 2026-04-27 12:29 | 32.95031 | 27.01936 | 37051 ft | 376 kts | 301° |
| 2026-04-27 12:29 | 32.96528 | 26.99342 | 36806 ft | 383 kts | 301° |
| 2026-04-27 12:29 | 32.98034 | 26.96731 | 36583 ft | 389 kts | 301° |
| 2026-04-27 12:30 | 32.99568 | 26.94063 | 36337 ft | 390 kts | 301° |
| 2026-04-27 12:30 | 33.01095 | 26.91400 | 36070 ft | 387 kts | 301° |
| 2026-04-27 12:30 | 33.02607 | 26.88765 | 35783 ft | 384 kts | 301° |
| 2026-04-27 12:30 | 33.04113 | 26.86140 | 35487 ft | 381 kts | 302° |
| 2026-04-27 12:31 | 33.05612 | 26.83525 | 35208 ft | 379 kts | 302° |
| 2026-04-27 12:31 | 33.07094 | 26.80936 | 34917 ft | 377 kts | 302° |
| 2026-04-27 12:31 | 33.08567 | 26.78361 | 34630 ft | 374 kts | 302° |
| 2026-04-27 12:31 | 33.10025 | 26.75813 | 34340 ft | 370 kts | 302° |
| 2026-04-27 12:32 | 33.11460 | 26.73302 | 34078 ft | 372 kts | 302° |
| 2026-04-27 12:32 | 33.14398 | 26.68149 | 34079 ft | 378 kts | 302° |
| 2026-04-27 12:33 | 33.17378 | 26.62921 | 34074 ft | 380 kts | 302° |
| 2026-04-27 12:33 | 33.20354 | 26.57694 | 34073 ft | 380 kts | 302° |
| 2026-04-27 12:34 | 33.23310 | 26.52494 | 34067 ft | 380 kts | 302° |
| 2026-04-27 12:34 | 33.26281 | 26.47259 | 34051 ft | 380 kts | 302° |
| 2026-04-27 12:34 | 33.27756 | 26.44659 | 33944 ft | 374 kts | 302° |
| 2026-04-27 12:35 | 33.29202 | 26.42112 | 33820 ft | 367 kts | 302° |
| 2026-04-27 12:35 | 33.30635 | 26.39584 | 33708 ft | 367 kts | 302° |
| 2026-04-27 12:35 | 33.32065 | 26.37052 | 33620 ft | 368 kts | 302° |
| 2026-04-27 12:36 | 33.34938 | 26.31970 | 33428 ft | 368 kts | 302° |
| 2026-04-27 12:36 | 33.37781 | 26.26934 | 33259 ft | 367 kts | 302° |
| 2026-04-27 12:37 | 33.40630 | 26.21880 | 33093 ft | 365 kts | 302° |
| 2026-04-27 12:37 | 33.43464 | 26.16847 | 33067 ft | 363 kts | 302° |
| 2026-04-27 12:38 | 33.46292 | 26.11815 | 33061 ft | 364 kts | 302° |
| 2026-04-27 12:38 | 33.49118 | 26.06783 | 33057 ft | 364 kts | 302° |
| 2026-04-27 12:39 | 33.51925 | 26.01777 | 33055 ft | 363 kts | 302° |
| 2026-04-27 12:39 | 33.54740 | 25.96747 | 33059 ft | 364 kts | 302° |
| 2026-04-27 12:40 | 33.57564 | 25.91697 | 33068 ft | 364 kts | 302° |
| 2026-04-27 12:40 | 33.60381 | 25.86652 | 33059 ft | 364 kts | 302° |
| 2026-04-27 12:41 | 33.63196 | 25.81603 | 33062 ft | 364 kts | 301° |
| 2026-04-27 12:41 | 33.66006 | 25.76556 | 33066 ft | 363 kts | 301° |
| 2026-04-27 12:42 | 33.68797 | 25.71538 | 33064 ft | 360 kts | 301° |
| 2026-04-27 12:42 | 33.71578 | 25.66530 | 33066 ft | 364 kts | 301° |
| 2026-04-27 12:43 | 33.74418 | 25.61402 | 33082 ft | 373 kts | 301° |
| 2026-04-27 12:43 | 33.77328 | 25.56145 | 33083 ft | 382 kts | 301° |
| 2026-04-27 12:44 | 33.80311 | 25.50745 | 33085 ft | 392 kts | 301° |
| 2026-04-27 12:44 | 33.83351 | 25.45235 | 33087 ft | 403 kts | 301° |
| 2026-04-27 12:45 | 33.86492 | 25.39533 | 33088 ft | 413 kts | 301° |
| 2026-04-27 12:45 | 33.89161 | 25.34679 | 33089 ft | 422 kts | 301° |
| 2026-04-27 12:46 | 33.92444 | 25.28702 | 33091 ft | 434 kts | 301° |
| 2026-04-27 12:46 | 33.95814 | 25.22557 | 33083 ft | 445 kts | 301° |
| 2026-04-27 12:47 | 33.99691 | 25.16699 | 33051 ft | 451 kts | 314° |
| 2026-04-27 12:47 | 34.04863 | 25.12365 | 33058 ft | 458 kts | 329° |
| 2026-04-27 12:48 | 34.10697 | 25.09233 | 33065 ft | 459 kts | 330° |
| 2026-04-27 12:48 | 34.16495 | 25.06124 | 33062 ft | 458 kts | 330° |
| 2026-04-27 12:49 | 34.22332 | 25.02994 | 33054 ft | 459 kts | 330° |
| 2026-04-27 12:49 | 34.28164 | 24.99861 | 33057 ft | 458 kts | 330° |
| 2026-04-27 12:50 | 34.33998 | 24.96722 | 33062 ft | 458 kts | 330° |
| 2026-04-27 12:50 | 34.39839 | 24.93575 | 33061 ft | 458 kts | 330° |
| 2026-04-27 12:51 | 34.45636 | 24.90446 | 33052 ft | 458 kts | 330° |
| 2026-04-27 12:51 | 34.51472 | 24.87292 | 33053 ft | 459 kts | 330° |
| 2026-04-27 12:52 | 34.57308 | 24.84132 | 33055 ft | 458 kts | 330° |
| 2026-04-27 12:52 | 34.63138 | 24.80972 | 33057 ft | 459 kts | 330° |
| 2026-04-27 12:53 | 34.71854 | 24.76237 | 33051 ft | 459 kts | 330° |
| 2026-04-27 12:53 | 34.77690 | 24.73060 | 33048 ft | 460 kts | 330° |
| 2026-04-27 12:54 | 34.83539 | 24.69872 | 33053 ft | 460 kts | 330° |
| 2026-04-27 12:54 | 34.89386 | 24.66680 | 33060 ft | 460 kts | 330° |
| 2026-04-27 12:55 | 34.95234 | 24.63482 | 33062 ft | 461 kts | 330° |
| 2026-04-27 12:55 | 35.01099 | 24.60271 | 33066 ft | 462 kts | 330° |
| 2026-04-27 12:56 | 35.06926 | 24.57074 | 33075 ft | 462 kts | 330° |
| 2026-04-27 12:56 | 35.12789 | 24.53853 | 33073 ft | 462 kts | 330° |
| 2026-04-27 12:57 | 35.18660 | 24.50622 | 33057 ft | 463 kts | 330° |
| 2026-04-27 12:57 | 35.24535 | 24.47384 | 33063 ft | 463 kts | 330° |
| 2026-04-27 12:58 | 35.30382 | 24.44156 | 33065 ft | 463 kts | 330° |
| 2026-04-27 12:58 | 35.36259 | 24.40907 | 33088 ft | 464 kts | 330° |
| 2026-04-27 12:59 | 35.42151 | 24.37644 | 33071 ft | 464 kts | 330° |
| 2026-04-27 12:59 | 35.48039 | 24.34377 | 33067 ft | 465 kts | 330° |
| 2026-04-27 13:00 | 35.53935 | 24.31102 | 33067 ft | 465 kts | 330° |
| 2026-04-27 13:00 | 35.59827 | 24.27823 | 33071 ft | 465 kts | 330° |
| 2026-04-27 13:01 | 35.65727 | 24.24534 | 33077 ft | 465 kts | 330° |
| 2026-04-27 13:01 | 35.71634 | 24.21236 | 33073 ft | 466 kts | 330° |
| 2026-04-27 13:02 | 35.77535 | 24.17937 | 33072 ft | 467 kts | 330° |
| 2026-04-27 13:02 | 35.83451 | 24.14622 | 33075 ft | 467 kts | 330° |
| 2026-04-27 13:03 | 35.89381 | 24.11295 | 33071 ft | 469 kts | 330° |
| 2026-04-27 13:03 | 35.95320 | 24.07958 | 33075 ft | 469 kts | 330° |
| 2026-04-27 13:04 | 36.01273 | 24.04606 | 33078 ft | 470 kts | 330° |
| 2026-04-27 13:04 | 36.07233 | 24.01246 | 33076 ft | 471 kts | 330° |
| 2026-04-27 13:05 | 36.13159 | 23.97899 | 33083 ft | 471 kts | 330° |
| 2026-04-27 13:05 | 36.19132 | 23.94520 | 33079 ft | 472 kts | 330° |
| 2026-04-27 13:06 | 36.25106 | 23.91134 | 33073 ft | 473 kts | 330° |
| 2026-04-27 13:06 | 36.31088 | 23.87738 | 33081 ft | 473 kts | 330° |
| 2026-04-27 13:07 | 36.37071 | 23.84337 | 33083 ft | 472 kts | 330° |
| 2026-04-27 13:07 | 36.43065 | 23.80921 | 33074 ft | 474 kts | 330° |
| 2026-04-27 13:08 | 36.49068 | 23.77497 | 33079 ft | 475 kts | 330° |
| 2026-04-27 13:08 | 36.55041 | 23.74083 | 33085 ft | 475 kts | 330° |
| 2026-04-27 13:09 | 36.61074 | 23.70629 | 33082 ft | 476 kts | 330° |
| 2026-04-27 13:09 | 36.67104 | 23.67170 | 33085 ft | 477 kts | 330° |
| 2026-04-27 13:10 | 36.73139 | 23.63703 | 33084 ft | 478 kts | 330° |
| 2026-04-27 13:10 | 36.79145 | 23.60246 | 33087 ft | 478 kts | 330° |
| 2026-04-27 13:11 | 36.85187 | 23.56762 | 33027 ft | 479 kts | 331° |
| 2026-04-27 13:11 | 36.91175 | 23.53306 | 32987 ft | 479 kts | 331° |
| 2026-04-27 13:12 | 36.97233 | 23.49799 | 32985 ft | 480 kts | 331° |
| 2026-04-27 13:12 | 37.03293 | 23.46288 | 32987 ft | 480 kts | 331° |
| 2026-04-27 13:13 | 37.09360 | 23.42765 | 32993 ft | 481 kts | 331° |
| 2026-04-27 13:13 | 37.15433 | 23.39233 | 32991 ft | 481 kts | 331° |
| 2026-04-27 13:14 | 37.21510 | 23.35692 | 32989 ft | 482 kts | 331° |
| 2026-04-27 13:14 | 37.27588 | 23.32145 | 32988 ft | 482 kts | 331° |
| 2026-04-27 13:15 | 37.33650 | 23.28601 | 33038 ft | 481 kts | 331° |
| 2026-04-27 13:15 | 37.39744 | 23.25030 | 33214 ft | 483 kts | 331° |
| 2026-04-27 13:16 | 37.45838 | 23.21455 | 33402 ft | 483 kts | 331° |
| 2026-04-27 13:16 | 37.51925 | 23.17876 | 33569 ft | 482 kts | 331° |
| 2026-04-27 13:17 | 37.58016 | 23.14290 | 33747 ft | 482 kts | 331° |
| 2026-04-27 13:17 | 37.64060 | 23.10724 | 33919 ft | 482 kts | 331° |
| 2026-04-27 13:18 | 37.70140 | 23.07131 | 34103 ft | 482 kts | 331° |
| 2026-04-27 13:18 | 37.76230 | 23.03523 | 34263 ft | 483 kts | 331° |
| 2026-04-27 13:19 | 37.82332 | 22.99906 | 34407 ft | 485 kts | 331° |
| 2026-04-27 13:19 | 37.88436 | 22.96278 | 34445 ft | 481 kts | 331° |
| 2026-04-27 13:20 | 37.91360 | 22.94300 | 34561 ft | 472 kts | 322° |
| 2026-04-27 13:20 | 37.93931 | 22.91767 | 34691 ft | 468 kts | 313° |
| 2026-04-27 13:20 | 37.96131 | 22.88723 | 34822 ft | 468 kts | 307° |
| 2026-04-27 13:20 | 37.98212 | 22.85526 | 34839 ft | 471 kts | 307° |
| 2026-04-27 13:21 | 38.02336 | 22.79124 | 34833 ft | 472 kts | 306° |
| 2026-04-27 13:21 | 38.06497 | 22.72665 | 34813 ft | 472 kts | 306° |
| 2026-04-27 13:22 | 38.10646 | 22.66209 | 34791 ft | 471 kts | 306° |
| 2026-04-27 13:22 | 38.14789 | 22.59747 | 34771 ft | 472 kts | 306° |
| 2026-04-27 13:23 | 38.18932 | 22.53276 | 34748 ft | 472 kts | 306° |
| 2026-04-27 13:23 | 38.23068 | 22.46800 | 34715 ft | 472 kts | 306° |
| 2026-04-27 13:24 | 38.27205 | 22.40311 | 34690 ft | 472 kts | 306° |
| 2026-04-27 13:24 | 38.31342 | 22.33809 | 34667 ft | 472 kts | 306° |
| 2026-04-27 13:25 | 38.35469 | 22.27310 | 34643 ft | 472 kts | 306° |
| 2026-04-27 13:25 | 38.39566 | 22.20844 | 34615 ft | 472 kts | 306° |
| 2026-04-27 13:26 | 38.43689 | 22.14324 | 34595 ft | 472 kts | 306° |
| 2026-04-27 13:26 | 38.47112 | 22.08901 | 34562 ft | 471 kts | 306° |
| 2026-04-27 13:27 | 38.51918 | 22.01272 | 34539 ft | 471 kts | 306° |
| 2026-04-27 13:27 | 38.55329 | 21.95847 | 34524 ft | 471 kts | 306° |
| 2026-04-27 13:28 | 38.60095 | 21.88250 | 34504 ft | 472 kts | 306° |
| 2026-04-27 13:28 | 38.64202 | 21.81691 | 34458 ft | 471 kts | 306° |
| 2026-04-27 13:29 | 38.67616 | 21.76228 | 34437 ft | 471 kts | 306° |
| 2026-04-27 13:29 | 38.71699 | 21.69682 | 34403 ft | 470 kts | 306° |
| 2026-04-27 13:30 | 38.75781 | 21.63123 | 34372 ft | 473 kts | 306° |
| 2026-04-27 13:30 | 38.79866 | 21.56548 | 34341 ft | 470 kts | 306° |
| 2026-04-27 13:31 | 38.83959 | 21.49943 | 34319 ft | 471 kts | 306° |
| 2026-04-27 13:31 | 38.88030 | 21.43364 | 34288 ft | 470 kts | 306° |
| 2026-04-27 13:32 | 38.92058 | 21.36838 | 34263 ft | 470 kts | 306° |
| 2026-04-27 13:32 | 38.96132 | 21.30226 | 34238 ft | 471 kts | 305° |
| 2026-04-27 13:33 | 39.00196 | 21.23618 | 34202 ft | 470 kts | 305° |
| 2026-04-27 13:33 | 39.04257 | 21.16997 | 34182 ft | 471 kts | 305° |
| 2026-04-27 13:34 | 39.08284 | 21.10420 | 34149 ft | 471 kts | 305° |
| 2026-04-27 13:34 | 39.12334 | 21.03792 | 34124 ft | 471 kts | 305° |
| 2026-04-27 13:35 | 39.16386 | 20.97147 | 34099 ft | 471 kts | 305° |
| 2026-04-27 13:35 | 39.20432 | 20.90499 | 34069 ft | 472 kts | 305° |
| 2026-04-27 13:36 | 39.24475 | 20.83840 | 34024 ft | 472 kts | 305° |
| 2026-04-27 13:36 | 39.28523 | 20.77159 | 34002 ft | 471 kts | 305° |
| 2026-04-27 13:37 | 39.32545 | 20.70507 | 33979 ft | 472 kts | 305° |
| 2026-04-27 13:37 | 39.36584 | 20.63816 | 33955 ft | 472 kts | 305° |
| 2026-04-27 13:38 | 39.40619 | 20.57112 | 33918 ft | 473 kts | 305° |
| 2026-04-27 13:38 | 39.44655 | 20.50396 | 33887 ft | 472 kts | 304° |
| 2026-04-27 13:39 | 39.48683 | 20.43679 | 33853 ft | 471 kts | 304° |
| 2026-04-27 13:39 | 39.52678 | 20.37001 | 33822 ft | 472 kts | 304° |
| 2026-04-27 13:40 | 39.56692 | 20.30279 | 33800 ft | 472 kts | 304° |
| 2026-04-27 13:40 | 39.60706 | 20.23542 | 33761 ft | 472 kts | 304° |
| 2026-04-27 13:41 | 39.64712 | 20.16804 | 33735 ft | 471 kts | 304° |
| 2026-04-27 13:41 | 39.68711 | 20.10064 | 33704 ft | 471 kts | 304° |
| 2026-04-27 13:42 | 39.72703 | 20.03321 | 33674 ft | 471 kts | 304° |
| 2026-04-27 13:42 | 39.76699 | 19.96555 | 33631 ft | 470 kts | 304° |
| 2026-04-27 13:43 | 39.80649 | 19.89856 | 33605 ft | 470 kts | 304° |
| 2026-04-27 13:43 | 39.84630 | 19.83087 | 33580 ft | 470 kts | 304° |
| 2026-04-27 13:44 | 39.88608 | 19.76310 | 33545 ft | 470 kts | 304° |
| 2026-04-27 13:44 | 39.92577 | 19.69535 | 33519 ft | 470 kts | 304° |
| 2026-04-27 13:45 | 39.96539 | 19.62755 | 33480 ft | 470 kts | 304° |
| 2026-04-27 13:45 | 40.00500 | 19.55964 | 33458 ft | 470 kts | 304° |
| 2026-04-27 13:46 | 40.04460 | 19.49159 | 33434 ft | 471 kts | 304° |
| 2026-04-27 13:46 | 40.08415 | 19.42347 | 33420 ft | 471 kts | 304° |
| 2026-04-27 13:47 | 40.12158 | 19.35887 | 33376 ft | 471 kts | 304° |